Data for 10/22/2006

Time Sea-Level Adjusted Pressure Absolute Pressure Temperature Relative Humidity Dew Point   
(mb) (inHg) (mb) (inHg) (C) (F) (%) (C) (F)
00:05 1027 30.33 856 25.28 -0.6 30.9 97 -1.1 30
00:10 1027 30.33 856 25.28 -0.6 30.9 97 -1.1 30.1
00:15 1027 30.33 856 25.28 -0.6 30.9 97 -1.1 30.1
00:20 1027 30.33 856 25.28 -0.5 31.1 97 -0.9 30.4
00:25 1027 30.33 856 25.28 -0.3 31.4 96 -0.9 30.4
00:30 1027 30.33 856 25.28 -0.1 31.8 94 -1 30.3
00:35 1027 30.33 856 25.28 -0.1 31.8 93 -1.2 29.9
00:40 1027 30.33 856 25.28 -0.1 31.9 92 -1.2 29.9
00:45 1027 30.33 856 25.28 -0 32 92 -1.2 29.9
00:50 1027 30.33 856 25.28 0.1 32.2 92 -1.1 30
00:55 1027 30.33 856 25.28 0.1 32.2 91 -1.2 29.8
01:00 1027 30.33 856 25.28 0.1 32.2 90 -1.3 29.7
01:05 1027 30.33 856 25.28 0.1 32.2 90 -1.3 29.6
01:10 1027 30.33 856 25.28 0.1 32.3 90 -1.4 29.5
01:15 1027 30.33 856 25.28 0.1 32.2 89 -1.5 29.2
01:20 1027 30.33 856 25.28 -0.1 31.9 88 -1.9 28.7
01:25 1027 30.33 856 25.28 -0.3 31.4 87 -2.2 28.1
01:30 1027 30.33 856 25.28 -0.8 30.6 87 -2.6 27.3
01:35 1027 30.33 856 25.28 -0.9 30.4 88 -2.6 27.3
01:40 1027 30.33 856 25.28 -0.8 30.7 88 -2.6 27.4
01:45 1027 30.33 856 25.28 -0.5 31.1 87 -2.3 27.8
01:50 1027 30.33 856 25.28 -0.3 31.5 87 -2.3 27.9
01:55 1027 30.33 856 25.28 -0.2 31.7 88 -2 28.5
02:00 1027 30.33 856 25.28 -0.4 31.3 89 -2 28.4
02:05 1027 30.33 856 25.28 -0.5 31 91 -1.9 28.6
02:10 1027 30.33 856 25.28 -0.8 30.5 92 -2 28.4
02:15 1027 30.33 856 25.28 -0.9 30.4 92 -2.1 28.3
02:20 1027 30.33 856 25.28 -1 30.2 93 -2 28.3
02:25 1026 30.3 856 25.28 -1.1 30.1 93 -2 28.3
02:30 1026 30.3 856 25.28 -1 30.2 93 -2 28.3
02:35 1026 30.3 856 25.28 -0.9 30.5 91 -2.2 28.1
02:40 1026 30.3 856 25.28 -1 30.1 90 -2.5 27.5
02:45 1026 30.3 856 25.28 -1.1 30.1 88 -2.8 27
02:50 1026 30.3 856 25.28 -1.1 30.1 89 -2.6 27.2
02:55 1026 30.3 856 25.28 -1.1 30 89 -2.7 27.2
03:00 1026 30.3 856 25.28 -1.2 29.9 90 -2.7 27.2
03:05 1026 30.3 855 25.25 -1.2 29.9 90 -2.6 27.2
03:10 1026 30.3 855 25.25 -1.2 29.8 90 -2.8 27
03:15 1026 30.3 855 25.25 -1.3 29.7 90 -2.7 27.1
03:20 1026 30.3 855 25.25 -1.4 29.4 90 -2.9 26.8
03:25 1026 30.3 855 25.25 -1.5 29.3 91 -2.9 26.8
03:30 1026 30.3 855 25.25 -1.4 29.4 90 -2.8 27
03:35 1026 30.3 855 25.25 -1.4 29.5 90 -2.9 26.8
03:40 1026 30.3 855 25.25 -1.6 29.1 90 -3 26.5
03:45 1026 30.3 855 25.25 -1.9 28.5 92 -3.1 26.4
03:50 1026 30.3 855 25.25 -2.2 28 92 -3.4 25.9
03:55 1026 30.3 855 25.25 -2.1 28.1 91 -3.4 25.9
04:00 1026 30.3 855 25.25 -2.3 27.8 93 -3.3 26.1
04:05 1026 30.3 855 25.25 -2.5 27.5 93 -3.4 25.8
04:10 1026 30.3 855 25.25 -2.5 27.5 92 -3.7 25.3
04:15 1026 30.3 855 25.25 -2.5 27.6 90 -3.8 25.1
04:20 1026 30.3 855 25.25 -2.4 27.6 89 -4 24.8
04:25 1026 30.3 855 25.25 -2.9 26.8 91 -4.1 24.7
04:30 1026 30.3 855 25.25 -2.9 26.8 91 -4.1 24.6
04:35 1026 30.3 855 25.25 -2.8 27 91 -4.1 24.7
04:40 1026 30.3 855 25.25 -2.5 27.4 89 -4.1 24.7
04:45 1026 30.3 855 25.25 -2.4 27.7 88 -4.2 24.5
04:50 1026 30.3 855 25.25 -2.5 27.5 88 -4.3 24.3
04:55 1026 30.3 855 25.25 -2.6 27.3 88 -4.3 24.3
05:00 1026 30.3 855 25.25 -2.6 27.4 88 -4.3 24.3
05:05 1026 30.3 855 25.25 -2.6 27.4 88 -4.3 24.3
05:10 1026 30.3 855 25.25 -2.7 27.1 89 -4.3 24.3
05:15 1026 30.3 855 25.25 -2.7 27.1 88 -4.5 23.9
05:20 1026 30.3 855 25.25 -2.9 26.8 88 -4.7 23.6
05:25 1026 30.3 855 25.25 -2.9 26.7 88 -4.6 23.7
05:30 1026 30.3 855 25.25 -3 26.6 88 -4.8 23.4
05:35 1026 30.3 855 25.25 -3.1 26.5 88 -4.7 23.5
05:40 1026 30.3 855 25.25 -3.3 26 90 -4.8 23.3
05:45 1026 30.3 855 25.25 -3.6 25.6 90 -5 23
05:50 1026 30.3 855 25.25 -3.6 25.5 90 -5 23
05:55 1026 30.3 855 25.25 -3.6 25.5 89 -5.2 22.7
06:00 1026 30.3 855 25.25 -3.7 25.3 90 -5.2 22.6
06:05 1026 30.3 855 25.25 -3.8 25.2 89 -5.3 22.4
06:10 1026 30.3 855 25.25 -3.8 25.2 89 -5.3 22.4
06:15 1026 30.3 855 25.25 -3.9 25.1 89 -5.4 22.3
06:20 1026 30.3 855 25.25 -3.8 25.2 87 -5.7 21.7
06:25 1026 30.3 855 25.25 -3.7 25.4 87 -5.6 22
06:30 1026 30.3 855 25.25 -3.8 25.2 87 -5.7 21.7
06:35 1026 30.3 855 25.25 -3.8 25.1 87 -5.7 21.7
06:40 1026 30.3 855 25.25 -3.9 25 87 -5.7 21.7
06:45 1026 30.3 855 25.25 -3.9 25.1 86 -5.8 21.5
06:50 1026 30.3 855 25.25 -3.8 25.2 86 -5.8 21.6
06:55 1026 30.3 855 25.25 -3.7 25.3 86 -5.8 21.6
07:00 1026 30.3 855 25.25 -3.9 24.9 86 -5.9 21.3
07:05 1026 30.3 855 25.25 -4.1 24.6 87 -6 21.3
07:10 1026 30.3 855 25.25 -4.3 24.2 89 -5.9 21.3
07:15 1026 30.3 855 25.25 -4.3 24.3 88 -6 21.3
07:20 1026 30.3 855 25.25 -4.2 24.5 88 -5.9 21.4
07:25 1026 30.3 855 25.25 -4 24.7 87 -5.8 21.5
07:30 1026 30.3 855 25.25 -3.9 25.1 86 -5.9 21.4
07:35 1026 30.3 855 25.25 -3.8 25.1 87 -5.7 21.7
07:40 1026 30.3 855 25.25 -3.7 25.3 85 -5.9 21.5
07:45 1026 30.3 855 25.25 -3.7 25.3 85 -5.9 21.5
07:50 1026 30.3 855 25.25 -4.2 24.5 87 -6 21.2
07:55 1026 30.3 855 25.25 -4.4 24.1 87 -6.3 20.7
08:00 1026 30.3 855 25.25 -4.5 23.9 86 -6.4 20.4
08:05 1026 30.3 855 25.25 -4.4 24 86 -6.5 20.3
08:10 1026 30.3 855 25.25 -4.4 24.1 85 -6.5 20.3
08:15 1026 30.3 855 25.25 -4 24.9 81 -6.7 19.9
08:20 1026 30.3 855 25.25 -3.5 25.7 81 -6.4 20.5
08:25 1026 30.3 855 25.25 -3.1 26.5 81 -6 21.3
08:30 1026 30.3 855 25.25 -2.4 27.7 78 -5.7 21.8
08:35 1026 30.3 855 25.25 -2.2 28 79 -5.4 22.3
08:40 1026 30.3 855 25.25 -1.6 29.1 75 -5.4 22.2
08:45 1026 30.3 855 25.25 -1.8 28.7 76 -5.6 22
08:50 1026 30.3 855 25.25 -2.2 28 78 -5.5 22.1
08:55 1026 30.3 855 25.25 -2.2 28 77 -5.7 21.8
09:00 1026 30.3 855 25.25 -2.6 27.4 78 -5.9 21.4
09:05 1026 30.3 855 25.25 -2.8 26.9 80 -5.9 21.5
09:10 1026 30.3 855 25.25 -2.4 27.7 76 -6.1 21.1
09:15 1026 30.3 855 25.25 -2.4 27.7 78 -5.6 21.9
09:20 1026 30.3 855 25.25 -2.1 28.2 77 -5.6 21.9
09:25 1026 30.3 855 25.25 -1.5 29.4 74 -5.6 22
09:30 1026 30.3 855 25.25 -0.6 30.9 70 -5.4 22.3
09:35 1026 30.3 855 25.25 -0.2 31.7 70 -5 23
09:40 1026 30.3 855 25.25 -0.6 30.9 70 -5.4 22.3
09:45 1026 30.3 855 25.25 -0.8 30.6 70 -5.5 22.1
09:50 1026 30.3 855 25.25 -0.3 31.5 68 -5.5 22.2
09:55 1026 30.3 855 25.25 1 33.8 64 -5 23
10:00 1026 30.3 855 25.25 1.3 34.4 66 -4.4 24
10:05 1026 30.3 855 25.25 1.6 34.9 65 -4.2 24.5
10:10 1026 30.3 855 25.25 1.9 35.5 67 -3.5 25.7
10:15 1026 30.3 855 25.25 1.8 35.3 65 -4 24.9
10:20 1026 30.3 855 25.25 1.7 35.1 68 -3.6 25.5
10:25 1026 30.3 855 25.25 1.5 34.7 68 -3.8 25.1
10:30 1026 30.3 855 25.25 1.8 35.2 66 -3.8 25.1
10:35 1026 30.3 855 25.25 1.8 35.2 66 -3.8 25.1
10:40 1026 30.3 855 25.25 2.3 36.1 65 -3.6 25.5
10:45 1026 30.3 855 25.25 2.3 36.1 64 -3.8 25.1
10:50 1026 30.3 855 25.25 2.9 37.2 60 -4.1 24.6
10:55 1026 30.3 855 25.25 2.8 37 61 -3.9 25
11:00 1026 30.3 855 25.25 2.7 36.9 61 -4.1 24.6
11:05 1026 30.3 855 25.25 2.7 36.8 61 -4.1 24.7
11:10 1026 30.3 855 25.25 3.1 37.6 60 -4 24.8
11:15 1026 30.3 855 25.25 3.2 37.8 61 -3.7 25.4
11:20 1026 30.3 855 25.25 3.4 38.2 60 -3.6 25.5
11:25 1026 30.3 855 25.25 3.7 38.7 59 -3.5 25.7
11:30 1025 30.27 855 25.25 3.6 38.5 61 -3.3 26
11:35 1025 30.27 855 25.25 3.4 38.2 63 -3 26.6
11:40 1025 30.27 855 25.25 3.4 38.1 64 -2.8 26.9
11:45 1025 30.27 855 25.25 3.6 38.4 62 -3 26.6
11:50 1025 30.27 855 25.25 3.7 38.7 61 -3 26.6
11:55 1025 30.27 854 25.22 4 39.2 64 -2.2 28.1
12:00 1025 30.27 854 25.22 4.6 40.3 60 -2.4 27.7
12:05 1025 30.27 854 25.22 5.2 41.3 53 -3.7 25.4
12:10 1025 30.27 854 25.22 4.1 39.4 62 -2.6 27.4
12:15 1025 30.27 854 25.22 4.4 40 58 -3.1 26.5
12:20 1025 30.27 854 25.22 5.2 41.4 56 -2.8 27
12:25 1025 30.27 854 25.22 4.9 40.9 55 -3.4 25.9
12:30 1025 30.27 854 25.22 6.1 43 54 -2.5 27.5
12:35 1025 30.27 854 25.22 5.6 42.1 58 -2 28.5
12:40 1025 30.27 854 25.22 4.6 40.3 60 -2.5 27.4
12:45 1025 30.27 854 25.22 4.5 40 59 -2.8 27
12:50 1025 30.27 854 25.22 5.2 41.4 58 -2.4 27.7
12:55 1025 30.27 854 25.22 5.6 42 55 -2.8 27
13:00 1025 30.27 854 25.22 4.8 40.6 60 -2.3 27.9
13:05 1025 30.27 854 25.22 5.5 42 59 -1.8 28.8
13:10 1025 30.27 854 25.22 6.9 44.4 54 -1.6 29.1
13:15 1025 30.27 854 25.22 6.6 43.9 59 -0.9 30.3
13:20 1024 30.24 854 25.22 6.5 43.7 58 -1.2 29.9
13:25 1024 30.24 854 25.22 6.6 43.8 52 -2.5 27.5
13:30 1024 30.24 854 25.22 7.4 45.2 50 -2.4 27.7
13:35 1024 30.24 854 25.22 6.6 43.8 60 -0.6 30.9
13:40 1024 30.24 854 25.22 6.5 43.7 58 -1.2 29.9
13:45 1024 30.24 853 25.19 7.3 45.1 54 -1.4 29.4
13:50 1024 30.24 853 25.19 7.1 44.9 52 -2.1 28.2
13:55 1024 30.24 853 25.19 6 42.9 50 -3.7 25.3
14:00 1024 30.24 853 25.19 6.3 43.3 54 -2.3 27.9
14:05 1024 30.24 853 25.19 5.9 42.7 53 -2.9 26.8
14:10 1024 30.24 853 25.19 7 44.5 50 -2.6 27.3
14:15 1024 30.24 853 25.19 7.3 45.2 48 -3 26.7
14:20 1024 30.24 853 25.19 6.8 44.2 54 -1.9 28.6
14:25 1024 30.24 853 25.19 7.9 46.2 45 -3.2 26.3
14:30 1024 30.24 853 25.19 7.6 45.6 46 -3.2 26.2
14:35 1024 30.24 853 25.19 8 46.5 42 -4.2 24.5
14:40 1024 30.24 853 25.19 8.8 47.8 39 -4.2 24.4
14:45 1024 30.24 853 25.19 8.9 47.9 34 -6 21.2
14:50 1024 30.24 853 25.19 8.1 46.5 41 -4.5 23.9
14:55 1024 30.24 853 25.19 8.5 47.3 37 -5.2 22.7
15:00 1024 30.24 853 25.19 8.1 46.5 40 -4.7 23.5
15:05 1024 30.24 853 25.19 8.8 47.8 38 -4.6 23.7
15:10 1024 30.24 853 25.19 8.1 46.6 41 -4.3 24.2
15:15 1023 30.21 853 25.19 8.8 47.9 36 -5.5 22.1
15:20 1023 30.21 853 25.19 9.3 48.8 37 -4.5 23.9
15:25 1023 30.21 853 25.19 9.1 48.3 38 -4.3 24.2
15:30 1023 30.21 852 25.16 8.4 47.2 37 -5.3 22.5
15:35 1023 30.21 852 25.16 9.1 48.4 37 -4.7 23.5
15:40 1023 30.21 852 25.16 9.7 49.4 34 -5.2 22.6
15:45 1023 30.21 852 25.16 9.8 49.7 33 -5.5 22.1
15:50 1023 30.21 852 25.16 9.7 49.4 35 -5.2 22.7
15:55 1023 30.21 852 25.16 9.8 49.6 35 -5 23
16:00 1023 30.21 852 25.16 9.8 49.7 34 -5.1 22.9
16:05 1023 30.21 852 25.16 9.6 49.2 35 -5.3 22.5
16:10 1023 30.21 852 25.16 9.4 49 35 -5.2 22.6
16:15 1023 30.21 852 25.16 9.5 49 37 -4.4 24.1
16:20 1023 30.21 852 25.16 9.4 48.8 37 -4.7 23.5
16:25 1023 30.21 852 25.16 9.5 49.2 35 -5 23
16:30 1023 30.21 852 25.16 10 50 32 -5.9 21.5
16:35 1023 30.21 852 25.16 9.9 49.8 32 -5.8 21.5
16:40 1023 30.21 852 25.16 10 49.9 34 -5.4 22.4
16:45 1023 30.21 852 25.16 9.8 49.7 35 -4.9 23.1
16:50 1023 30.21 852 25.16 9.7 49.5 32 -6.2 20.9
16:55 1023 30.21 852 25.16 10 50 33 -5.6 21.9
17:00 1022 30.18 852 25.16 9.9 49.8 32 -6.2 20.9
17:05 1022 30.18 852 25.16 9.7 49.5 33 -5.7 21.8
17:10 1022 30.18 852 25.16 9.9 49.7 33 -5.7 21.7
17:15 1022 30.18 852 25.16 9.8 49.7 33 -5.6 21.9
17:20 1022 30.18 852 25.16 9.5 49 33 -6 21.3
17:25 1022 30.18 852 25.16 9.6 49.2 33 -6.1 21.1
17:30 1022 30.18 852 25.16 9.5 49.1 34 -5.7 21.7
17:35 1022 30.18 852 25.16 9.2 48.5 34 -5.9 21.3
17:40 1022 30.18 852 25.16 9.2 48.5 34 -6.1 21.1
17:45 1022 30.18 852 25.16 9.1 48.3 34 -6.1 20.9
17:50 1022 30.18 852 25.16 8.7 47.6 36 -5.5 22.1
17:55 1022 30.18 851 25.13 8.7 47.7 36 -5.7 21.8
18:00 1022 30.18 851 25.13 8.7 47.6 36 -5.5 22.2
18:05 1022 30.18 851 25.13 8.2 46.7 38 -5.3 22.4
18:10 1022 30.18 851 25.13 7.6 45.6 54 -1.1 29.9
18:15 1022 30.18 851 25.13 6.9 44.4 62 0 32.1
18:20 1022 30.18 851 25.13 6 42.8 67 0.4 32.8
18:25 1022 30.18 851 25.13 5.3 41.6 70 0.3 32.5
18:30 1022 30.18 851 25.13 4.9 40.8 73 0.4 32.7
18:35 1022 30.18 851 25.13 4.3 39.7 74 0 32.1
18:40 1022 30.18 851 25.13 4.2 39.6 74 -0 31.9
18:45 1022 30.18 851 25.13 4 39.2 75 -0.1 31.9
18:50 1022 30.18 851 25.13 3.8 38.8 76 -0 31.9
18:55 1022 30.18 851 25.13 3.3 38 79 0 32
19:00 1022 30.18 851 25.13 3.3 37.9 77 -0.4 31.3
19:05 1022 30.18 851 25.13 3.2 37.7 79 -0.2 31.7
19:10 1022 30.18 851 25.13 3 37.3 79 -0.3 31.5
19:15 1022 30.18 851 25.13 2.8 37 80 -0.3 31.5
19:20 1022 30.18 851 25.13 2.6 36.6 81 -0.4 31.2
19:25 1022 30.18 851 25.13 2.4 36.4 80 -0.7 30.7
19:30 1022 30.18 851 25.13 2.4 36.2 81 -0.7 30.8
19:35 1022 30.18 851 25.13 2.4 36.2 80 -0.8 30.6
19:40 1022 30.18 851 25.13 2.4 36.2 78 -1 30.1
19:45 1022 30.18 851 25.13 2.4 36.4 76 -1.4 29.4
19:50 1022 30.18 851 25.13 2.4 36.3 77 -1.3 29.6
19:55 1022 30.18 851 25.13 2.1 35.8 77 -1.4 29.4
20:00 1022 30.18 851 25.13 1.9 35.4 79 -1.4 29.5
20:05 1022 30.18 851 25.13 1.8 35.2 80 -1.2 29.8
20:10 1022 30.18 851 25.13 1.5 34.7 83 -1.1 30
20:15 1022 30.18 851 25.13 1.3 34.4 84 -1.1 29.9
20:20 1022 30.18 851 25.13 1.4 34.5 82 -1.3 29.7
20:25 1022 30.18 851 25.13 1.4 34.6 83 -1.1 30
20:30 1022 30.18 851 25.13 1.1 33.9 85 -1.1 30
20:35 1022 30.18 851 25.13 0.8 33.5 86 -1.2 29.8
20:40 1022 30.18 851 25.13 0.8 33.5 86 -1.2 29.8
20:45 1022 30.18 851 25.13 1 33.8 85 -1.2 29.8
20:50 1022 30.18 851 25.13 1.2 34.1 84 -1.1 29.9
20:55 1022 30.18 851 25.13 1.1 34 85 -1.2 29.9
21:00 1022 30.18 851 25.13 1.1 33.9 84 -1.3 29.7
21:05 1022 30.18 851 25.13 1.2 34.1 82 -1.5 29.3
21:10 1022 30.18 851 25.13 1.3 34.3 82 -1.4 29.5
21:15 1022 30.18 851 25.13 1.3 34.4 80 -1.7 29
21:20 1022 30.18 851 25.13 1.7 35.1 80 -1.3 29.7
21:25 1022 30.18 851 25.13 1.8 35.2 80 -1.3 29.7
21:30 1022 30.18 851 25.13 1.2 34.1 84 -1.2 29.8
21:35 1022 30.18 851 25.13 0.7 33.3 86 -1.4 29.5
21:40 1022 30.18 851 25.13 0.7 33.2 86 -1.3 29.6
21:45 1022 30.18 851 25.13 0.6 33.1 86 -1.4 29.5
21:50 1022 30.18 851 25.13 0.7 33.2 86 -1.5 29.4
21:55 1021 30.15 851 25.13 0.7 33.2 86 -1.5 29.4
22:00 1021 30.15 851 25.13 0.6 33 86 -1.5 29.2
22:05 1021 30.15 851 25.13 0.5 32.8 85 -1.8 28.8
22:10 1021 30.15 851 25.13 0.5 32.9 85 -1.7 28.9
22:15 1021 30.15 850 25.1 0.6 33 85 -1.6 29
22:20 1021 30.15 850 25.1 0.7 33.2 85 -1.6 29.1
22:25 1021 30.15 850 25.1 0.7 33.2 85 -1.6 29.1
22:30 1021 30.15 850 25.1 0.6 33.1 85 -1.7 29
22:35 1021 30.15 850 25.1 0.6 33 84 -1.8 28.8
22:40 1021 30.15 850 25.1 0.6 33.1 84 -1.8 28.7
22:45 1021 30.15 850 25.1 0.8 33.4 83 -1.8 28.8
22:50 1021 30.15 850 25.1 0.7 33.3 83 -1.8 28.8
22:55 1021 30.15 850 25.1 0.8 33.4 83 -1.8 28.8
23:00 1021 30.15 851 25.13 0.8 33.5 82 -1.8 28.7
23:05 1021 30.15 851 25.13 0.8 33.4 82 -2 28.4
23:10 1021 30.15 850 25.1 0.9 33.6 81 -2 28.5
23:15 1021 30.15 850 25.1 0.9 33.7 81 -2 28.4
23:20 1021 30.15 850 25.1 1 33.8 81 -2 28.5
23:25 1021 30.15 850 25.1 0.8 33.5 81 -2 28.3
23:30 1021 30.15 850 25.1 0.8 33.4 81 -2.1 28.2
23:35 1021 30.15 850 25.1 0.6 33.2 82 -2.1 28.2
23:40 1021 30.15 850 25.1 0.7 33.3 81 -2.2 28
23:45 1021 30.15 850 25.1 0.9 33.6 80 -2.3 27.9
23:50 1021 30.15 850 25.1 1 33.8 79 -2.2 28
23:55 1021 30.15 850 25.1 1.1 33.9 78 -2.3 27.8
24:00 1021 30.15 850 25.1 1.2 34.2 77 -2.3 27.9